Latest Weather Observations for Daly Waters

IDD60801

Issued at 9:05 am CST Friday 18 April 2014 (issued every 30 minutes, with the page automatically refreshed every 10 minutes)

About weather observations | Map of weather stations | Latest weather observations for NT | Other Formats
Station Details ID: 014626 Name: DALY WATERS AIRSTRIP Lat: -16.26 Lon: 133.38 Height: 209.84 m
Data from the previous 72 hours. | See also: Recent months at Daly Waters
Date/Time
CST
Temp
°C
App
Temp
°C
Dew
Point
Rel
Hum
%
Delta-T
°C
Wind Press
QNH
hPa
Press
MSL
hPa
Rain
since 9 am
mm
Dir
 
Spd
km/h
Gust
km/h
Spd
kts
Gust
kts
18/09:00am 27.8 26.7 14.4 43 8.1 ESE 13 22 7 12 1014.8 1013.5 0.0
18/08:30am 26.6 24.9 13.7 45 7.7 SE 15 22 8 12 1014.4 1013.1 0.0
18/08:00am 25.7 24.5 13.9 48 7.0 SE 13 22 7 12 1014.0 - 0.0
18/07:30am 23.8 26.3 20.3 81 2.3 SSE 7 13 4 7 1013.8 1012.5 0.0
18/07:00am 22.9 25.7 20.4 86 1.6 SSE 6 7 3 4 1013.6 - 0.0
18/06:30am 22.5 25.5 20.0 86 1.6 SSE 4 6 2 3 1013.4 1012.2 0.0
18/06:00am 22.5 25.4 19.9 85 1.7 SE 4 6 2 3 1013.3 1012.1 0.0
18/05:30am 22.8 25.4 20.1 85 1.8 SSE 6 11 3 6 1012.9 1011.7 0.0
18/05:00am 21.9 24.2 19.5 86 1.5 SSE 6 7 3 4 1012.9 - 0.0
18/04:30am 21.8 24.8 19.2 85 1.7 SE 2 6 1 3 1012.7 1011.4 0.0
18/04:00am 22.3 25.7 19.3 83 1.9 CALM 0 0 0 0 1012.7 - 0.0
18/03:30am 22.8 26.0 19.8 83 1.9 SE 2 4 1 2 1012.8 1011.6 0.0
18/03:00am 23.0 26.2 19.8 82 2.1 SE 2 4 1 2 1013.0 1011.8 0.0
18/02:30am 23.1 26.6 19.5 80 2.3 CALM 0 0 0 0 1013.1 1011.9 0.0
18/02:00am 23.7 27.2 19.6 78 2.7 CALM 0 0 0 0 1013.3 - 0.0
18/01:30am 24.6 28.0 19.4 73 3.4 CALM 0 0 0 0 1013.8 1012.5 0.0
18/01:00am 25.6 29.1 19.5 69 4.0 CALM 0 0 0 0 1014.2 - 0.0
18/12:30am 26.3 28.8 19.9 68 4.2 ENE 6 7 3 4 1014.8 1013.5 0.0
18/12:00am 26.6 28.6 20.0 67 4.3 ENE 9 15 5 8 1015.0 1013.7 0.0
 
Date/Time
CST
Temp
°C
App
Temp
°C
Dew
Point
Rel
Hum
%
Delta-T
°C
Wind Press
QNH
hPa
Press
MSL
hPa
Rain
since 9 am
mm
Dir
 
Spd
km/h
Gust
km/h
Spd
kts
Gust
kts
17/11:30pm 26.9 28.9 20.0 66 4.5 NE 9 17 5 9 1015.1 1013.8 0.0
17/11:00pm 27.3 29.4 20.1 64 4.7 E 9 15 5 8 1015.1 - 0.0
17/10:30pm 27.2 29.5 19.5 62 5.0 E 6 11 3 6 1015.2 1013.9 0.0
17/10:00pm 27.4 29.7 19.5 62 5.2 NE 6 9 3 5 1015.0 - 0.0
17/09:30pm 27.7 29.1 19.5 61 5.4 NE 11 19 6 10 1014.8 1013.5 0.0
17/09:00pm 26.4 30.3 20.3 69 4.0 CALM 0 0 0 0 1014.2 1012.9 0.0
17/08:30pm 27.4 31.1 20.0 64 4.9 CALM 0 0 0 0 1013.9 1012.6 0.0
17/08:00pm 28.4 32.2 20.2 61 5.4 CALM 0 0 0 0 1013.4 - 0.0
17/07:30pm 28.6 32.1 19.5 58 6.0 CALM 0 0 0 0 1013.0 1011.8 0.0
17/07:00pm 28.9 31.1 19.5 57 6.2 NNE 7 11 4 6 1012.5 - 0.0
17/06:30pm 29.6 31.5 19.0 53 6.9 NNE 7 11 4 6 1012.0 1010.7 0.0
17/06:00pm 31.5 32.7 15.9 39 9.8 E 4 7 2 4 1011.4 1010.1 0.0
17/05:30pm 32.5 32.8 15.1 35 10.9 E 7 15 4 8 1011.1 1009.8 0.0
17/05:00pm 32.8 32.7 14.9 34 11.1 E 9 19 5 10 1010.7 - 0.0
17/04:30pm 33.5 33.6 14.5 31 11.8 E 7 15 4 8 1010.4 1009.1 0.0
17/04:00pm 34.8 34.6 14.7 30 12.6 ESE 9 19 5 10 1010.4 - 0.0
17/03:30pm 34.3 32.8 14.2 29 12.5 ESE 15 28 8 15 1010.6 1009.3 0.0
17/03:00pm 33.5 32.7 14.0 30 12.0 ESE 11 20 6 11 1010.9 1009.6 0.0
17/02:30pm 34.9 34.5 14.2 28 12.8 E 9 19 5 10 1011.2 1009.9 0.0
17/02:00pm 34.9 34.2 14.2 28 12.8 E 11 20 6 11 1011.6 - 0.0
17/01:30pm 33.7 32.1 12.7 28 12.7 SE 13 22 7 12 1011.9 1010.6 0.0
17/01:00pm 33.3 32.3 12.3 28 12.6 SSE 9 19 5 10 1012.3 - 0.0
17/12:30pm 33.0 31.6 10.9 26 13.0 SE 9 19 5 10 1012.7 1011.4 0.0
17/12:00pm 32.1 29.9 10.8 27 12.4 SSE 13 20 7 11 1013.1 1011.9 0.0
17/11:30am 32.0 30.2 9.5 25 12.8 SSE 9 19 5 10 1013.8 1012.5 0.0
17/11:00am 30.9 27.7 8.6 25 12.5 ESE 15 22 8 12 1014.2 - 0.0
17/10:30am 30.5 27.3 8.3 25 12.3 ESE 15 26 8 14 1014.5 1013.2 0.0
17/10:00am 29.8 26.5 8.2 26 12.0 SE 15 26 8 14 1014.7 - 0.0
17/09:30am 28.8 26.0 8.5 28 11.2 SE 13 26 7 14 1014.7 1013.4 0.0
17/09:00am 27.8 25.1 9.1 31 10.4 SE 13 24 7 13 1014.6 1013.3 0.0
17/08:30am 26.4 24.2 9.3 34 9.5 SE 11 22 6 12 1014.3 1013.0 0.0
17/08:00am 25.5 23.2 8.9 35 9.1 SE 11 19 6 10 1014.2 - 0.0
17/07:30am 24.9 23.0 10.4 40 8.1 SE 11 19 6 10 1014.0 1012.7 0.0
17/07:00am 24.3 22.5 10.9 43 7.5 SE 11 19 6 10 1013.7 - 0.0
17/06:30am 23.3 22.3 12.3 50 6.3 SE 9 15 5 8 1013.2 1012.0 0.0
17/06:00am 21.7 21.5 13.6 60 4.7 SE 7 11 4 6 1012.8 1011.6 0.0
17/05:30am 19.0 19.2 14.1 73 2.8 SE 6 7 3 4 1012.5 1011.2 0.0
17/05:00am 18.5 19.3 14.8 79 2.2 SE 4 6 2 3 1012.3 - 0.0
17/04:30am 18.7 20.0 14.2 75 2.6 CALM 0 0 0 0 1012.0 1010.7 0.0
17/04:00am 19.6 20.8 13.8 69 3.4 CALM 0 0 0 0 1011.8 - 0.0
17/03:30am 19.8 19.9 14.0 69 3.4 S 6 7 3 4 1011.8 1010.5 0.0
17/03:00am 19.6 19.7 13.8 69 3.4 SSW 6 7 3 4 1011.9 1010.6 0.0
17/02:30am 20.2 21.3 13.6 66 3.8 CALM 0 0 0 0 1012.0 1010.7 0.0
17/02:00am 21.9 22.1 13.0 57 5.1 NE 4 9 2 5 1012.3 - 0.0
17/01:30am 23.1 22.8 12.7 52 6.0 ESE 6 11 3 6 1012.6 1011.3 0.0
17/01:00am 23.6 23.7 12.6 50 6.4 E 4 13 2 7 1012.8 - 0.0
17/12:30am 24.5 24.0 12.1 46 7.1 SSE 6 7 3 4 1012.8 1011.6 0.0
17/12:00am 25.1 24.6 12.0 44 7.6 SSE 6 9 3 5 1012.8 1011.6 0.0
 
Date/Time
CST
Temp
°C
App
Temp
°C
Dew
Point
Rel
Hum
%
Delta-T
°C
Wind Press
QNH
hPa
Press
MSL
hPa
Rain
since 9 am
mm
Dir
 
Spd
km/h
Gust
km/h
Spd
kts
Gust
kts
16/11:30pm 25.4 24.7 11.9 43 7.8 SSE 7 11 4 6 1012.8 1011.6 0.0
16/11:00pm 26.3 25.6 12.0 41 8.3 SSE 7 13 4 7 1012.8 - 0.0
16/10:30pm 26.5 25.6 11.4 39 8.7 SSE 7 15 4 8 1012.7 1011.4 0.0
16/10:00pm 27.2 25.6 11.7 38 9.0 SSE 11 19 6 10 1012.7 - 0.0
16/09:30pm 27.6 26.0 11.6 37 9.3 SSE 11 17 6 9 1012.6 1011.3 0.0
16/09:00pm 27.5 26.5 12.3 39 8.9 SSE 9 15 5 8 1012.3 1011.0 0.0
16/08:30pm 27.4 26.6 13.0 41 8.5 S 9 13 5 7 1012.0 1010.7 0.0
16/08:00pm 27.4 27.1 13.4 42 8.3 S 7 13 4 7 1011.6 - 0.0
16/07:30pm 28.1 27.6 12.8 38 9.1 SSE 7 11 4 6 1011.2 1009.9 0.0
16/07:00pm 28.8 28.3 12.7 37 9.5 S 7 13 4 7 1010.9 - 0.0
16/06:30pm 29.8 28.8 12.3 34 10.4 SSE 9 13 5 7 1010.8 1009.5 0.0
16/06:00pm 31.2 29.8 12.1 31 11.3 SSE 11 20 6 11 1010.6 1009.3 0.0
16/05:30pm 32.2 31.1 11.9 29 12.1 SSE 9 22 5 12 1010.4 1009.1 0.0
16/05:00pm 32.7 30.6 12.3 28 12.2 SSE 15 26 8 14 1010.3 - 0.0
16/04:30pm 33.2 31.4 12.2 28 12.6 SE 13 20 7 11 1010.2 1008.9 0.0
16/04:00pm 33.2 30.5 11.7 27 12.8 SE 17 33 9 18 1010.2 - 0.0
16/03:30pm 33.5 31.2 11.9 27 12.9 SSE 15 24 8 13 1010.2 1008.9 0.0
16/03:00pm 33.7 31.9 12.1 27 12.9 ESE 13 24 7 13 1010.3 1009.0 0.0
16/02:30pm 33.2 31.3 11.7 27 12.8 SE 13 26 7 14 1010.7 1009.4 0.0
16/02:00pm 33.9 32.2 12.3 27 13.0 SE 13 24 7 13 1010.9 - 0.0
16/01:30pm 33.3 30.8 11.2 26 13.0 SE 15 24 8 13 1011.3 1010.0 0.0
16/01:00pm 32.7 30.1 10.7 26 12.8 SE 15 24 8 13 1011.7 - 0.0
16/12:30pm 33.2 31.6 11.7 27 12.8 SE 11 20 6 11 1012.2 1010.9 0.0
16/12:00pm 32.0 28.7 9.5 25 12.9 SE 17 30 9 16 1012.8 1011.6 0.0
16/11:30am 31.5 28.5 10.8 28 12.0 SE 17 30 9 16 1013.3 1012.1 0.0
16/11:00am 30.6 27.0 10.0 28 11.8 SE 19 30 10 16 1013.9 - 0.0
16/10:30am 29.5 25.8 9.6 29 11.2 SE 19 32 10 17 1014.1 1012.8 0.0
16/10:00am 29.1 25.6 10.3 31 10.7 SE 19 28 10 15 1014.2 - 0.0
16/09:30am 28.1 24.6 10.3 33 10.1 ESE 19 33 10 18 1014.2 1012.9 0.0
16/09:00am 27.1 24.3 11.2 37 9.1 ESE 17 32 9 17 1014.1 1012.8 0.0
16/08:30am 25.5 23.8 12.4 44 7.6 SE 13 20 7 11 1013.9 1012.6 0.0
16/08:00am 23.9 23.1 12.8 49 6.4 SE 9 15 5 8 1013.8 - 0.0
16/07:30am 22.1 22.1 13.5 58 5.0 SE 6 11 3 6 1013.4 1012.2 0.0
16/07:00am 20.9 21.2 13.4 62 4.3 SE 4 9 2 5 1013.3 - 0.0
16/06:30am 21.4 21.0 13.1 59 4.8 SSE 7 15 4 8 1012.9 1011.7 0.0
16/06:00am 21.6 21.3 13.2 59 4.9 SSE 7 11 4 6 1012.6 1011.3 0.0
16/05:30am 21.1 21.0 13.8 63 4.3 SSE 7 13 4 7 1012.5 1011.2 0.0
16/05:00am 18.1 18.8 14.6 80 2.0 S 4 7 2 4 1012.2 - 0.0
16/04:30am 18.2 19.9 15.3 83 1.7 CALM 0 0 0 0 1012.0 1010.7 0.0
16/04:00am 18.2 19.5 15.1 82 1.8 SSE 2 4 1 2 1012.0 - 0.0
16/03:30am 18.2 19.0 14.9 81 1.9 SSW 4 6 2 3 1012.0 1010.7 0.0
16/03:00am 18.0 19.3 15.1 83 1.7 SW 2 6 1 3 1011.9 1010.6 0.0
16/02:30am 18.0 19.6 14.9 82 1.8 CALM 0 0 0 0 1011.9 1010.6 0.0
16/02:00am 18.2 19.8 14.9 81 1.9 CALM 0 0 0 0 1012.1 - 0.0
16/01:30am 18.6 19.4 14.9 79 2.2 SW 4 4 2 2 1012.3 1011.0 0.0
16/01:00am 18.8 20.1 15.1 79 2.2 SSW 2 4 1 2 1012.6 - 0.0
16/12:30am 19.3 20.8 14.6 74 2.8 CALM 0 0 0 0 1012.8 1011.6 0.0
16/12:00am 19.9 21.1 14.9 73 3.0 S 2 4 1 2 1012.9 1011.7 0.0
 
Date/Time
CST
Temp
°C
App
Temp
°C
Dew
Point
Rel
Hum
%
Delta-T
°C
Wind Press
QNH
hPa
Press
MSL
hPa
Rain
since 9 am
mm
Dir
 
Spd
km/h
Gust
km/h
Spd
kts
Gust
kts
15/11:30pm 20.5 21.2 14.4 68 3.6 S 4 4 2 2 1013.0 1011.8 0.0
15/11:00pm 22.2 22.6 13.8 59 4.9 S 4 6 2 3 1013.2 - 0.0
15/10:30pm 24.1 23.8 12.7 49 6.6 S 6 7 3 4 1013.2 1012.0 0.0
15/10:00pm 24.6 24.4 12.9 48 6.8 SSE 6 9 3 5 1013.3 - 0.0
15/09:30pm 25.1 24.8 12.7 46 7.2 SSE 6 9 3 5 1013.2 1012.0 0.0
15/09:00pm 25.7 25.4 13.2 46 7.4 SSE 7 11 4 6 1013.1 1011.9 0.0
15/08:30pm 25.7 25.5 13.5 46 7.2 S 7 11 4 6 1012.7 1011.4 0.0
15/08:00pm 23.7 24.0 14.4 56 5.5 S 6 9 3 5 1012.3 - 0.0
15/07:30pm 23.6 24.9 15.1 59 5.1 S 2 4 1 2 1011.8 1010.5 0.0
15/07:00pm 25.6 25.8 13.1 46 7.4 SSE 4 4 2 2 1011.3 - 0.0
15/06:30pm 28.7 27.8 10.8 33 10.3 SSE 6 9 3 5 1011.0 1009.7 0.0
15/06:00pm 30.4 29.4 10.9 30 11.3 SSE 7 15 4 8 1010.8 1009.5 0.0
15/05:30pm 31.5 30.6 11.3 29 11.9 SE 7 13 4 7 1010.6 1009.3 0.0
15/05:00pm 31.9 30.6 11.1 28 12.2 SSE 9 20 5 11 1010.5 - 0.0
15/04:30pm 32.2 30.0 10.8 27 12.5 SE 13 20 7 11 1010.3 1009.0 0.0
15/04:00pm 32.2 30.4 10.8 27 12.5 S 11 19 6 10 1010.3 - 0.0
15/03:30pm 32.6 31.3 11.2 27 12.6 S 9 15 5 8 1010.3 1009.0 0.0
15/03:00pm 32.5 30.6 10.5 26 12.8 SSE 11 20 6 11 1010.6 1009.3 0.0
15/02:30pm 32.3 29.9 11.5 28 12.3 SSE 15 28 8 15 1011.0 1009.7 0.0
15/02:00pm 32.1 29.3 11.3 28 12.2 SE 17 26 9 14 1011.4 - 0.0
15/01:30pm 31.9 29.8 11.1 28 12.2 SE 13 24 7 13 1011.8 1010.5 0.0
15/01:00pm 31.8 30.0 12.1 30 11.7 SE 13 20 7 11 1012.5 - 0.0
15/12:30pm 31.7 29.9 12.0 30 11.7 ESE 13 22 7 12 1013.0 1011.8 0.0
15/12:00pm 30.4 27.9 10.9 30 11.3 SE 15 26 8 14 1013.6 1012.3 0.0
15/11:30am 30.4 28.0 11.4 31 11.1 ESE 15 22 8 12 1014.0 1012.7 0.0
15/11:00am 29.7 27.6 11.2 31 10.7 SE 13 24 7 13 1014.4 - 0.0
15/10:30am 28.9 25.6 11.0 33 10.3 SE 19 32 10 17 1014.6 1013.3 0.0
15/10:00am 28.0 24.6 10.7 34 9.9 SE 19 32 10 17 1014.6 - 0.0
15/09:30am 27.3 25.1 12.1 39 8.9 SE 15 22 8 12 1014.7 1013.4 0.0

Other Formats:

Comma delimited format used in spreadsheet applications
http://www.bom.gov.au/fwo/IDD60801/IDD60801.94234.axf

JavaScript Object Notation format (JSON) in row-major order
http://www.bom.gov.au/fwo/IDD60801/IDD60801.94234.json